sensor_id;sensor_type;location;lat;lon;timestamp;P1;P2;P0
71794;PMS7003;59641;45.188;5.712;2023-09-19T00:01:12;0.00;0.00;0.00
71794;PMS7003;59641;45.188;5.712;2023-09-19T00:03:38;2.00;2.00;0.75
71794;PMS7003;59641;45.188;5.712;2023-09-19T00:06:04;1.75;1.75;1.00
71794;PMS7003;59641;45.188;5.712;2023-09-19T00:08:33;0.40;0.40;0.40
71794;PMS7003;59641;45.188;5.712;2023-09-19T00:10:59;1.00;1.00;0.60
71794;PMS7003;59641;45.188;5.712;2023-09-19T00:13:29;1.00;1.00;0.00
71794;PMS7003;59641;45.188;5.712;2023-09-19T00:15:55;1.40;1.00;0.60
71794;PMS7003;59641;45.188;5.712;2023-09-19T00:18:24;1.20;1.00;0.00
71794;PMS7003;59641;45.188;5.712;2023-09-19T00:20:53;1.00;1.00;1.00
71794;PMS7003;59641;45.188;5.712;2023-09-19T00:23:22;2.00;0.60;0.00
71794;PMS7003;59641;45.188;5.712;2023-09-19T00:25:48;1.50;1.00;1.00
71794;PMS7003;59641;45.188;5.712;2023-09-19T00:28:15;0.40;0.20;0.00
71794;PMS7003;59641;45.188;5.712;2023-09-19T00:30:42;2.60;0.20;0.00
71794;PMS7003;59641;45.188;5.712;2023-09-19T00:33:08;1.00;0.80;0.60
71794;PMS7003;59641;45.188;5.712;2023-09-19T00:35:36;0.80;0.80;0.00
71794;PMS7003;59641;45.188;5.712;2023-09-19T00:38:02;1.00;1.00;1.00
71794;PMS7003;59641;45.188;5.712;2023-09-19T00:40:28;3.00;2.00;1.00
71794;PMS7003;59641;45.188;5.712;2023-09-19T00:42:57;0.80;0.80;0.40
71794;PMS7003;59641;45.188;5.712;2023-09-19T00:45:26;2.20;2.20;1.00
71794;PMS7003;59641;45.188;5.712;2023-09-19T00:47:51;1.50;1.00;1.00
71794;PMS7003;59641;45.188;5.712;2023-09-19T00:50:17;1.00;1.00;1.00
71794;PMS7003;59641;45.188;5.712;2023-09-19T00:52:44;1.60;1.60;1.00
71794;PMS7003;59641;45.188;5.712;2023-09-19T00:55:12;1.00;1.00;0.00
71794;PMS7003;59641;45.188;5.712;2023-09-19T00:57:39;1.00;1.00;1.00
71794;PMS7003;59641;45.188;5.712;2023-09-19T01:00:05;1.00;1.00;0.75
71794;PMS7003;59641;45.188;5.712;2023-09-19T01:02:33;0.80;0.80;0.00
71794;PMS7003;59641;45.188;5.712;2023-09-19T01:04:59;2.00;2.00;1.60
71794;PMS7003;59641;45.188;5.712;2023-09-19T01:07:26;3.75;3.00;2.00
71794;PMS7003;59641;45.188;5.712;2023-09-19T01:09:54;3.40;3.40;1.80
71794;PMS7003;59641;45.188;5.712;2023-09-19T01:12:24;2.00;2.00;2.00
71794;PMS7003;59641;45.188;5.712;2023-09-19T01:26:18;3.50;3.50;2.50
71794;PMS7003;59641;45.188;5.712;2023-09-19T01:31:48;3.60;2.40;2.00
71794;PMS7003;59641;45.188;5.712;2023-09-19T01:34:16;2.00;2.00;1.60
71794;PMS7003;59641;45.188;5.712;2023-09-19T01:36:43;3.00;3.00;1.40
71794;PMS7003;59641;45.188;5.712;2023-09-19T01:39:11;2.40;2.00;1.20
71794;PMS7003;59641;45.188;5.712;2023-09-19T01:44:29;0.00;0.00;0.00
71794;PMS7003;59641;45.188;5.712;2023-09-19T01:47:26;2.40;2.20;1.20
71794;PMS7003;59641;45.188;5.712;2023-09-19T01:53:07;4.40;3.80;3.00
71794;PMS7003;59641;45.188;5.712;2023-09-19T01:55:43;2.40;2.00;1.00
71794;PMS7003;59641;45.188;5.712;2023-09-19T01:58:18;1.80;1.80;1.20
71794;PMS7003;59641;45.188;5.712;2023-09-19T02:00:45;2.80;2.00;1.00
71794;PMS7003;59641;45.188;5.712;2023-09-19T02:03:13;3.80;3.80;2.80
71794;PMS7003;59641;45.188;5.712;2023-09-19T02:05:39;2.20;2.20;1.00
71794;PMS7003;59641;45.188;5.712;2023-09-19T02:08:05;2.00;2.00;1.00
71794;PMS7003;59641;45.188;5.712;2023-09-19T02:10:30;3.00;2.00;2.00
71794;PMS7003;59641;45.188;5.712;2023-09-19T02:12:56;2.00;2.00;1.50
71794;PMS7003;59641;45.188;5.712;2023-09-19T02:15:22;2.75;2.75;2.50
71794;PMS7003;59641;45.188;5.712;2023-09-19T02:17:47;4.00;4.00;2.75
71794;PMS7003;59641;45.188;5.712;2023-09-19T02:20:13;3.00;2.00;1.50
71794;PMS7003;59641;45.188;5.712;2023-09-19T02:22:41;3.00;3.00;2.00
71794;PMS7003;59641;45.188;5.712;2023-09-19T02:25:07;2.50;2.50;1.50
71794;PMS7003;59641;45.188;5.712;2023-09-19T02:27:33;2.00;2.00;1.40
71794;PMS7003;59641;45.188;5.712;2023-09-19T02:29:59;1.75;1.75;1.25
71794;PMS7003;59641;45.188;5.712;2023-09-19T02:32:29;2.80;2.80;1.20
71794;PMS7003;59641;45.188;5.712;2023-09-19T02:34:56;3.80;2.20;1.40
71794;PMS7003;59641;45.188;5.712;2023-09-19T02:37:22;3.20;3.20;2.20
71794;PMS7003;59641;45.188;5.712;2023-09-19T02:39:48;1.00;1.00;1.00
71794;PMS7003;59641;45.188;5.712;2023-09-19T02:42:13;2.25;2.25;1.25
71794;PMS7003;59641;45.188;5.712;2023-09-19T02:44:38;1.75;1.75;1.00
71794;PMS7003;59641;45.188;5.712;2023-09-19T02:47:05;3.60;3.20;2.20
71794;PMS7003;59641;45.188;5.712;2023-09-19T02:49:30;2.00;2.00;1.00
71794;PMS7003;59641;45.188;5.712;2023-09-19T02:51:55;2.25;2.25;1.50
71794;PMS7003;59641;45.188;5.712;2023-09-19T02:54:23;2.80;2.80;1.20
71794;PMS7003;59641;45.188;5.712;2023-09-19T02:56:49;1.25;1.25;1.00
71794;PMS7003;59641;45.188;5.712;2023-09-19T02:59:14;2.00;2.00;1.75
71794;PMS7003;59641;45.188;5.712;2023-09-19T03:01:39;2.00;2.00;1.00
71794;PMS7003;59641;45.188;5.712;2023-09-19T03:04:07;3.20;3.20;2.00
71794;PMS7003;59641;45.188;5.712;2023-09-19T03:06:33;2.75;2.25;2.00
71794;PMS7003;59641;45.188;5.712;2023-09-19T03:08:59;3.00;2.50;2.00
71794;PMS7003;59641;45.188;5.712;2023-09-19T03:11:25;2.40;2.40;1.80
71794;PMS7003;59641;45.188;5.712;2023-09-19T03:13:51;1.50;1.00;1.00
71794;PMS7003;59641;45.188;5.712;2023-09-19T03:16:17;3.00;2.40;1.20
71794;PMS7003;59641;45.188;5.712;2023-09-19T03:18:47;2.00;2.00;1.00
71794;PMS7003;59641;45.188;5.712;2023-09-19T03:21:14;2.20;1.00;0.80
71794;PMS7003;59641;45.188;5.712;2023-09-19T03:23:40;1.60;1.60;1.20
71794;PMS7003;59641;45.188;5.712;2023-09-19T03:26:05;2.00;2.00;1.50
71794;PMS7003;59641;45.188;5.712;2023-09-19T03:28:32;2.25;1.00;1.00
71794;PMS7003;59641;45.188;5.712;2023-09-19T03:31:02;2.40;2.40;1.60
71794;PMS7003;59641;45.188;5.712;2023-09-19T03:33:28;4.40;2.60;1.20
71794;PMS7003;59641;45.188;5.712;2023-09-19T03:35:56;1.00;1.00;0.40
71794;PMS7003;59641;45.188;5.712;2023-09-19T03:38:23;2.80;2.40;2.00
71794;PMS7003;59641;45.188;5.712;2023-09-19T03:40:48;3.25;3.00;2.00
71794;PMS7003;59641;45.188;5.712;2023-09-19T03:43:14;3.00;1.00;1.00
71794;PMS7003;59641;45.188;5.712;2023-09-19T03:45:39;3.00;2.00;2.00
71794;PMS7003;59641;45.188;5.712;2023-09-19T03:48:08;3.00;3.00;2.00
71794;PMS7003;59641;45.188;5.712;2023-09-19T03:50:34;2.00;2.00;2.00
71794;PMS7003;59641;45.188;5.712;2023-09-19T03:53:00;2.00;2.00;1.00
71794;PMS7003;59641;45.188;5.712;2023-09-19T03:55:25;2.00;2.00;2.00
71794;PMS7003;59641;45.188;5.712;2023-09-19T03:57:50;1.00;1.00;0.50
71794;PMS7003;59641;45.188;5.712;2023-09-19T04:00:16;2.75;2.75;2.00
71794;PMS7003;59641;45.188;5.712;2023-09-19T04:02:46;2.20;2.20;1.80
71794;PMS7003;59641;45.188;5.712;2023-09-19T04:05:11;2.00;2.00;1.00
71794;PMS7003;59641;45.188;5.712;2023-09-19T04:07:37;2.50;2.00;1.00
71794;PMS7003;59641;45.188;5.712;2023-09-19T04:10:02;2.50;2.50;1.50
71794;PMS7003;59641;45.188;5.712;2023-09-19T04:12:28;2.00;2.00;2.00
71794;PMS7003;59641;45.188;5.712;2023-09-19T04:14:53;3.25;3.25;2.75
71794;PMS7003;59641;45.188;5.712;2023-09-19T04:17:19;5.00;3.00;2.00
71794;PMS7003;59641;45.188;5.712;2023-09-19T04:19:44;2.00;2.00;1.50
71794;PMS7003;59641;45.188;5.712;2023-09-19T04:22:10;2.60;2.40;1.20
71794;PMS7003;59641;45.188;5.712;2023-09-19T04:24:36;3.75;2.75;1.75
71794;PMS7003;59641;45.188;5.712;2023-09-19T04:27:03;2.00;2.00;1.80
71794;PMS7003;59641;45.188;5.712;2023-09-19T04:29:28;3.60;3.60;2.20
71794;PMS7003;59641;45.188;5.712;2023-09-19T04:31:54;2.00;2.00;1.50
71794;PMS7003;59641;45.188;5.712;2023-09-19T04:34:19;1.25;1.25;0.25
71794;PMS7003;59641;45.188;5.712;2023-09-19T04:36:45;2.25;2.25;1.25
71794;PMS7003;59641;45.188;5.712;2023-09-19T04:39:10;2.50;2.00;2.00
71794;PMS7003;59641;45.188;5.712;2023-09-19T04:41:37;2.00;2.00;2.00
71794;PMS7003;59641;45.188;5.712;2023-09-19T04:44:05;3.20;2.00;1.00
71794;PMS7003;59641;45.188;5.712;2023-09-19T04:46:30;2.60;2.60;2.00
71794;PMS7003;59641;45.188;5.712;2023-09-19T04:48:56;3.00;3.00;2.00
71794;PMS7003;59641;45.188;5.712;2023-09-19T04:51:21;2.00;2.00;1.50
71794;PMS7003;59641;45.188;5.712;2023-09-19T04:53:46;2.00;2.00;1.50
71794;PMS7003;59641;45.188;5.712;2023-09-19T04:56:13;3.20;2.60;2.00
71794;PMS7003;59641;45.188;5.712;2023-09-19T04:58:38;2.00;2.00;2.00
71794;PMS7003;59641;45.188;5.712;2023-09-19T05:01:03;3.00;1.75;1.00
71794;PMS7003;59641;45.188;5.712;2023-09-19T05:03:29;3.50;2.50;2.25
71794;PMS7003;59641;45.188;5.712;2023-09-19T05:05:54;2.25;2.25;2.00
71794;PMS7003;59641;45.188;5.712;2023-09-19T05:08:20;5.00;3.00;2.00
71794;PMS7003;59641;45.188;5.712;2023-09-19T05:10:47;3.40;3.40;2.40
71794;PMS7003;59641;45.188;5.712;2023-09-19T05:13:12;4.00;3.25;2.00
71794;PMS7003;59641;45.188;5.712;2023-09-19T05:15:38;3.00;3.00;2.00
71794;PMS7003;59641;45.188;5.712;2023-09-19T05:18:04;3.40;1.80;1.80
71794;PMS7003;59641;45.188;5.712;2023-09-19T05:20:31;3.00;2.20;2.00
71794;PMS7003;59641;45.188;5.712;2023-09-19T05:23:07;2.00;2.00;0.40
71794;PMS7003;59641;45.188;5.712;2023-09-19T05:25:37;2.20;2.00;1.80
71794;PMS7003;59641;45.188;5.712;2023-09-19T05:28:08;2.40;2.00;1.00
71794;PMS7003;59641;45.188;5.712;2023-09-19T05:30:36;0.00;0.00;0.00
71794;PMS7003;59641;45.188;5.712;2023-09-19T05:33:03;1.80;1.80;1.00
71794;PMS7003;59641;45.188;5.712;2023-09-19T05:35:29;2.40;2.40;2.00
71794;PMS7003;59641;45.188;5.712;2023-09-19T05:37:55;3.00;3.00;1.40
71794;PMS7003;59641;45.188;5.712;2023-09-19T05:40:22;0.40;0.40;0.00
71794;PMS7003;59641;45.188;5.712;2023-09-19T05:42:48;1.00;1.00;0.25
71794;PMS7003;59641;45.188;5.712;2023-09-19T05:45:15;3.00;3.00;1.80
71794;PMS7003;59641;45.188;5.712;2023-09-19T05:47:47;3.60;3.60;2.40
71794;PMS7003;59641;45.188;5.712;2023-09-19T05:50:12;4.00;2.50;2.00
71794;PMS7003;59641;45.188;5.712;2023-09-19T05:52:39;5.00;3.20;2.00
71794;PMS7003;59641;45.188;5.712;2023-09-19T05:55:06;2.80;2.80;2.60
71794;PMS7003;59641;45.188;5.712;2023-09-19T05:57:35;3.40;3.40;1.60
71794;PMS7003;59641;45.188;5.712;2023-09-19T06:00:02;4.00;4.00;3.00
71794;PMS7003;59641;45.188;5.712;2023-09-19T06:02:33;4.00;4.00;3.00
71794;PMS7003;59641;45.188;5.712;2023-09-19T06:04:59;4.25;3.75;2.00
71794;PMS7003;59641;45.188;5.712;2023-09-19T06:07:24;4.00;4.00;2.75
71794;PMS7003;59641;45.188;5.712;2023-09-19T06:09:51;5.20;5.20;3.20
71794;PMS7003;59641;45.188;5.712;2023-09-19T06:12:18;4.00;4.00;3.00
71794;PMS7003;59641;45.188;5.712;2023-09-19T06:14:44;3.50;3.50;3.00
71794;PMS7003;59641;45.188;5.712;2023-09-19T06:17:09;2.50;2.50;2.00
71794;PMS7003;59641;45.188;5.712;2023-09-19T06:19:35;4.50;4.00;3.00
71794;PMS7003;59641;45.188;5.712;2023-09-19T06:22:01;2.00;2.00;1.50
71794;PMS7003;59641;45.188;5.712;2023-09-19T06:24:26;4.75;4.00;2.75
71794;PMS7003;59641;45.188;5.712;2023-09-19T06:26:51;2.25;2.00;1.75
71794;PMS7003;59641;45.188;5.712;2023-09-19T06:29:17;2.25;2.25;1.50
71794;PMS7003;59641;45.188;5.712;2023-09-19T06:31:43;3.00;3.00;2.00
71794;PMS7003;59641;45.188;5.712;2023-09-19T06:34:09;4.00;3.40;2.00
71794;PMS7003;59641;45.188;5.712;2023-09-19T06:36:35;4.00;2.50;2.00
71794;PMS7003;59641;45.188;5.712;2023-09-19T06:39:00;4.00;3.00;2.00
71794;PMS7003;59641;45.188;5.712;2023-09-19T06:41:25;2.00;2.00;1.50
71794;PMS7003;59641;45.188;5.712;2023-09-19T06:43:51;2.00;2.00;2.00
71794;PMS7003;59641;45.188;5.712;2023-09-19T06:46:19;1.80;1.80;1.00
71794;PMS7003;59641;45.188;5.712;2023-09-19T06:48:44;3.50;3.00;2.00
71794;PMS7003;59641;45.188;5.712;2023-09-19T06:51:12;2.00;2.00;1.60
71794;PMS7003;59641;45.188;5.712;2023-09-19T06:53:40;3.00;3.00;2.00
71794;PMS7003;59641;45.188;5.712;2023-09-19T06:56:06;3.00;2.75;2.00
71794;PMS7003;59641;45.188;5.712;2023-09-19T06:58:31;5.00;5.00;2.00
71794;PMS7003;59641;45.188;5.712;2023-09-19T07:00:57;4.00;4.00;3.00
71794;PMS7003;59641;45.188;5.712;2023-09-19T07:03:22;4.00;2.00;2.00
71794;PMS7003;59641;45.188;5.712;2023-09-19T07:05:51;3.60;3.40;2.40
71794;PMS7003;59641;45.188;5.712;2023-09-19T07:08:16;3.00;3.00;3.00
71794;PMS7003;59641;45.188;5.712;2023-09-19T07:10:41;4.00;3.00;2.00
71794;PMS7003;59641;45.188;5.712;2023-09-19T07:13:14;3.00;3.00;2.00
71794;PMS7003;59641;45.188;5.712;2023-09-19T07:15:41;3.00;3.00;3.00
71794;PMS7003;59641;45.188;5.712;2023-09-19T07:18:11;4.60;4.60;2.00
71794;PMS7003;59641;45.188;5.712;2023-09-19T07:20:39;3.00;2.60;2.60
71794;PMS7003;59641;45.188;5.712;2023-09-19T07:23:04;3.25;3.25;2.00
71794;PMS7003;59641;45.188;5.712;2023-09-19T07:25:30;2.50;2.50;1.50
71794;PMS7003;59641;45.188;5.712;2023-09-19T07:27:56;2.00;2.00;1.00
71794;PMS7003;59641;45.188;5.712;2023-09-19T07:30:25;2.80;2.80;2.40
71794;PMS7003;59641;45.188;5.712;2023-09-19T07:32:51;4.40;3.00;2.20
71794;PMS7003;59641;45.188;5.712;2023-09-19T07:35:17;4.00;4.00;3.00
71794;PMS7003;59641;45.188;5.712;2023-09-19T07:37:45;2.20;2.20;1.40
71794;PMS7003;59641;45.188;5.712;2023-09-19T07:40:14;4.60;3.40;2.40
71794;PMS7003;59641;45.188;5.712;2023-09-19T07:42:40;2.75;2.75;2.00
71794;PMS7003;59641;45.188;5.712;2023-09-19T07:45:06;4.50;3.25;3.00
71794;PMS7003;59641;45.188;5.712;2023-09-19T07:47:32;4.00;4.00;3.00
71794;PMS7003;59641;45.188;5.712;2023-09-19T07:49:58;3.00;2.00;2.00
71794;PMS7003;59641;45.188;5.712;2023-09-19T07:52:26;3.40;2.80;2.40
71794;PMS7003;59641;45.188;5.712;2023-09-19T07:54:52;2.25;2.25;1.50
71794;PMS7003;59641;45.188;5.712;2023-09-19T07:57:18;2.00;2.00;2.00
71794;PMS7003;59641;45.188;5.712;2023-09-19T07:59:44;2.60;2.60;1.60
71794;PMS7003;59641;45.188;5.712;2023-09-19T08:02:10;2.00;2.00;2.00
71794;PMS7003;59641;45.188;5.712;2023-09-19T08:04:41;4.00;4.00;2.20
71794;PMS7003;59641;45.188;5.712;2023-09-19T08:07:07;3.00;3.00;2.00
71794;PMS7003;59641;45.188;5.712;2023-09-19T08:09:36;2.00;2.00;2.00
71794;PMS7003;59641;45.188;5.712;2023-09-19T08:12:03;4.00;2.40;2.20
71794;PMS7003;59641;45.188;5.712;2023-09-19T08:14:29;4.00;3.00;2.50
71794;PMS7003;59641;45.188;5.712;2023-09-19T08:16:58;2.00;2.00;1.00
71794;PMS7003;59641;45.188;5.712;2023-09-19T08:19:24;3.00;3.00;2.00
71794;PMS7003;59641;45.188;5.712;2023-09-19T08:21:55;4.00;3.00;2.00
71794;PMS7003;59641;45.188;5.712;2023-09-19T08:24:24;3.00;3.00;1.00
71794;PMS7003;59641;45.188;5.712;2023-09-19T08:26:52;3.40;3.40;2.40
71794;PMS7003;59641;45.188;5.712;2023-09-19T08:29:17;1.50;1.50;1.00
71794;PMS7003;59641;45.188;5.712;2023-09-19T08:31:43;4.50;3.00;2.00
71794;PMS7003;59641;45.188;5.712;2023-09-19T08:34:08;2.00;2.00;1.00
71794;PMS7003;59641;45.188;5.712;2023-09-19T08:36:33;3.00;3.00;2.00
71794;PMS7003;59641;45.188;5.712;2023-09-19T08:39:00;2.60;2.60;2.00
71794;PMS7003;59641;45.188;5.712;2023-09-19T08:41:25;3.25;3.00;2.00
71794;PMS7003;59641;45.188;5.712;2023-09-19T08:43:51;1.25;1.25;1.00
71794;PMS7003;59641;45.188;5.712;2023-09-19T08:46:16;2.50;2.50;1.50
71794;PMS7003;59641;45.188;5.712;2023-09-19T08:48:57;3.00;1.80;1.00
71794;PMS7003;59641;45.188;5.712;2023-09-19T08:51:30;4.60;4.60;3.40
71794;PMS7003;59641;45.188;5.712;2023-09-19T08:54:07;3.60;3.60;2.00
71794;PMS7003;59641;45.188;5.712;2023-09-19T08:56:36;4.00;4.00;3.20
71794;PMS7003;59641;45.188;5.712;2023-09-19T08:59:05;3.40;3.40;3.00
71794;PMS7003;59641;45.188;5.712;2023-09-19T09:01:34;7.20;4.60;3.00
71794;PMS7003;59641;45.188;5.712;2023-09-19T09:04:01;3.00;3.00;2.20
71794;PMS7003;59641;45.188;5.712;2023-09-19T09:06:27;4.20;3.20;3.00
71794;PMS7003;59641;45.188;5.712;2023-09-19T09:08:54;2.40;2.40;2.20
71794;PMS7003;59641;45.188;5.712;2023-09-19T09:11:20;3.75;3.75;2.75
71794;PMS7003;59641;45.188;5.712;2023-09-19T09:13:46;2.80;2.80;2.40
71794;PMS7003;59641;45.188;5.712;2023-09-19T09:16:13;3.00;3.00;3.00
71794;PMS7003;59641;45.188;5.712;2023-09-19T09:18:43;4.40;4.00;3.60
71794;PMS7003;59641;45.188;5.712;2023-09-19T09:21:10;4.40;3.40;3.40
71794;PMS7003;59641;45.188;5.712;2023-09-19T09:23:36;4.00;4.00;2.50
71794;PMS7003;59641;45.188;5.712;2023-09-19T09:26:01;5.75;5.00;4.00
71794;PMS7003;59641;45.188;5.712;2023-09-19T09:28:32;7.00;5.20;4.60
71794;PMS7003;59641;45.188;5.712;2023-09-19T09:31:00;6.20;5.00;4.00
71794;PMS7003;59641;45.188;5.712;2023-09-19T09:33:37;5.40;5.40;3.60
71794;PMS7003;59641;45.188;5.712;2023-09-19T09:36:04;6.40;4.80;4.80
71794;PMS7003;59641;45.188;5.712;2023-09-19T09:38:46;6.00;6.00;3.60
71794;PMS7003;59641;45.188;5.712;2023-09-19T09:41:13;8.80;6.80;4.00
71794;PMS7003;59641;45.188;5.712;2023-09-19T09:43:41;6.00;4.40;3.00
71794;PMS7003;59641;45.188;5.712;2023-09-19T09:46:15;4.80;4.00;3.20
71794;PMS7003;59641;45.188;5.712;2023-09-19T09:48:45;6.20;5.80;4.00
71794;PMS7003;59641;45.188;5.712;2023-09-19T09:51:58;6.00;6.00;5.00
71794;PMS7003;59641;45.188;5.712;2023-09-19T09:54:25;4.00;4.00;3.00
71794;PMS7003;59641;45.188;5.712;2023-09-19T09:57:02;5.20;4.80;4.60
71794;PMS7003;59641;45.188;5.712;2023-09-19T09:59:49;6.00;4.60;3.00
71794;PMS7003;59641;45.188;5.712;2023-09-19T10:02:15;6.60;4.00;3.20
71794;PMS7003;59641;45.188;5.712;2023-09-19T10:04:54;6.00;6.00;4.20
71794;PMS7003;59641;45.188;5.712;2023-09-19T10:07:39;3.00;3.00;2.60
71794;PMS7003;59641;45.188;5.712;2023-09-19T10:10:14;4.00;4.00;3.60
71794;PMS7003;59641;45.188;5.712;2023-09-19T10:12:49;4.00;4.00;3.00
71794;PMS7003;59641;45.188;5.712;2023-09-19T10:15:21;4.00;4.00;4.00
71794;PMS7003;59641;45.188;5.712;2023-09-19T10:17:50;5.00;5.00;4.00
71794;PMS7003;59641;45.188;5.712;2023-09-19T10:20:19;3.60;3.60;2.40
71794;PMS7003;59641;45.188;5.712;2023-09-19T10:22:57;4.00;4.00;2.80
71794;PMS7003;59641;45.188;5.712;2023-09-19T10:25:25;3.00;2.40;2.00
71794;PMS7003;59641;45.188;5.712;2023-09-19T10:27:54;4.00;4.00;3.00
71794;PMS7003;59641;45.188;5.712;2023-09-19T10:30:20;5.40;4.00;3.80
71794;PMS7003;59641;45.188;5.712;2023-09-19T10:32:49;5.80;5.00;4.00
71794;PMS7003;59641;45.188;5.712;2023-09-19T10:35:24;4.40;4.40;3.40
71794;PMS7003;59641;45.188;5.712;2023-09-19T10:37:50;2.60;2.00;1.80
71794;PMS7003;59641;45.188;5.712;2023-09-19T10:40:19;4.80;3.80;2.20
71794;PMS7003;59641;45.188;5.712;2023-09-19T10:42:51;5.00;5.00;3.20
71794;PMS7003;59641;45.188;5.712;2023-09-19T10:45:18;4.80;4.80;4.40
71794;PMS7003;59641;45.188;5.712;2023-09-19T10:47:45;6.60;5.80;4.00
71794;PMS7003;59641;45.188;5.712;2023-09-19T10:50:19;4.20;4.20;3.40
71794;PMS7003;59641;45.188;5.712;2023-09-19T10:52:49;8.40;8.00;6.00
71794;PMS7003;59641;45.188;5.712;2023-09-19T10:55:23;6.00;6.00;4.80
71794;PMS7003;59641;45.188;5.712;2023-09-19T10:57:53;9.80;9.80;7.20
71794;PMS7003;59641;45.188;5.712;2023-09-19T11:00:18;7.50;6.75;4.75
71794;PMS7003;59641;45.188;5.712;2023-09-19T11:06:01;3.00;2.60;2.60
71794;PMS7003;59641;45.188;5.712;2023-09-19T11:30:30;3.60;3.20;1.80
71794;PMS7003;59641;45.188;5.712;2023-09-19T11:33:16;4.00;4.00;3.60
71794;PMS7003;59641;45.188;5.712;2023-09-19T11:35:58;4.20;4.20;2.80
71794;PMS7003;59641;45.188;5.712;2023-09-19T11:49:15;4.20;3.00;3.00
71794;PMS7003;59641;45.188;5.712;2023-09-19T11:51:46;3.00;3.00;2.00
71794;PMS7003;59641;45.188;5.712;2023-09-19T11:54:13;5.60;4.40;2.80
71794;PMS7003;59641;45.188;5.712;2023-09-19T11:56:43;3.00;3.00;2.00
71794;PMS7003;59641;45.188;5.712;2023-09-19T11:59:10;4.20;4.20;3.20
71794;PMS7003;59641;45.188;5.712;2023-09-19T12:01:35;2.00;2.00;2.00
71794;PMS7003;59641;45.188;5.712;2023-09-19T12:04:08;2.20;2.00;1.00
71794;PMS7003;59641;45.188;5.712;2023-09-19T12:06:36;1.80;1.80;1.40
71794;PMS7003;59641;45.188;5.712;2023-09-19T12:09:12;1.60;1.40;1.00
71794;PMS7003;59641;45.188;5.712;2023-09-19T12:11:42;1.00;1.00;1.00
71794;PMS7003;59641;45.188;5.712;2023-09-19T12:14:10;2.20;2.20;2.00
71794;PMS7003;59641;45.188;5.712;2023-09-19T12:16:36;1.75;1.75;1.75
71794;PMS7003;59641;45.188;5.712;2023-09-19T12:19:17;0.75;0.75;0.00
71794;PMS7003;59641;45.188;5.712;2023-09-19T12:21:59;2.20;2.00;2.00
71794;PMS7003;59641;45.188;5.712;2023-09-19T12:24:29;1.60;1.60;1.00
71794;PMS7003;59641;45.188;5.712;2023-09-19T12:27:05;1.00;1.00;1.00
71794;PMS7003;59641;45.188;5.712;2023-09-19T12:29:44;1.00;1.00;0.80
71794;PMS7003;59641;45.188;5.712;2023-09-19T12:32:11;0.40;0.00;0.00
71794;PMS7003;59641;45.188;5.712;2023-09-19T12:34:37;0.40;0.40;0.00
71794;PMS7003;59641;45.188;5.712;2023-09-19T12:37:10;0.00;0.00;0.00
71794;PMS7003;59641;45.188;5.712;2023-09-19T12:39:46;0.00;0.00;0.00
71794;PMS7003;59641;45.188;5.712;2023-09-19T12:42:14;1.60;1.00;0.00
71794;PMS7003;59641;45.188;5.712;2023-09-19T12:44:42;0.00;0.00;0.00
71794;PMS7003;59641;45.188;5.712;2023-09-19T12:47:10;0.00;0.00;0.00
71794;PMS7003;59641;45.188;5.712;2023-09-19T12:52:51;0.00;0.00;0.00
71794;PMS7003;59641;45.188;5.712;2023-09-19T12:57:58;0.00;0.00;0.00
71794;PMS7003;59641;45.188;5.712;2023-09-19T13:00:35;0.00;0.00;0.00
71794;PMS7003;59641;45.188;5.712;2023-09-19T13:03:15;0.20;0.20;0.00
71794;PMS7003;59641;45.188;5.712;2023-09-19T13:06:00;0.00;0.00;0.00
71794;PMS7003;59641;45.188;5.712;2023-09-19T13:08:39;1.60;0.00;0.00
71794;PMS7003;59641;45.188;5.712;2023-09-19T13:11:12;0.00;0.00;0.00
71794;PMS7003;59641;45.188;5.712;2023-09-19T13:13:41;0.00;0.00;0.00
71794;PMS7003;59641;45.188;5.712;2023-09-19T13:16:13;0.00;0.00;0.00
71794;PMS7003;59641;45.188;5.712;2023-09-19T13:18:49;0.00;0.00;0.00
71794;PMS7003;59641;45.188;5.712;2023-09-19T13:21:33;0.00;0.00;0.00
71794;PMS7003;59641;45.188;5.712;2023-09-19T13:24:24;0.00;0.00;0.00
71794;PMS7003;59641;45.188;5.712;2023-09-19T13:26:54;0.00;0.00;0.00
71794;PMS7003;59641;45.188;5.712;2023-09-19T13:29:20;0.00;0.00;0.00
71794;PMS7003;59641;45.188;5.712;2023-09-19T13:31:49;0.00;0.00;0.00
71794;PMS7003;59641;45.188;5.712;2023-09-19T13:34:16;0.00;0.00;0.00
71794;PMS7003;59641;45.188;5.712;2023-09-19T13:36:42;0.00;0.00;0.00
71794;PMS7003;59641;45.188;5.712;2023-09-19T13:39:08;0.00;0.00;0.00
71794;PMS7003;59641;45.188;5.712;2023-09-19T13:41:34;0.50;0.50;0.00
71794;PMS7003;59641;45.188;5.712;2023-09-19T13:44:02;0.00;0.00;0.00
71794;PMS7003;59641;45.188;5.712;2023-09-19T13:46:28;0.00;0.00;0.00
71794;PMS7003;59641;45.188;5.712;2023-09-19T13:48:53;1.00;1.00;0.75
71794;PMS7003;59641;45.188;5.712;2023-09-19T13:51:21;1.00;1.00;0.40
71794;PMS7003;59641;45.188;5.712;2023-09-19T13:53:50;0.00;0.00;0.00
71794;PMS7003;59641;45.188;5.712;2023-09-19T13:56:16;0.00;0.00;0.00
71794;PMS7003;59641;45.188;5.712;2023-09-19T13:58:41;0.00;0.00;0.00
71794;PMS7003;59641;45.188;5.712;2023-09-19T14:01:07;0.00;0.00;0.00
71794;PMS7003;59641;45.188;5.712;2023-09-19T14:03:37;0.00;0.00;0.00
71794;PMS7003;59641;45.188;5.712;2023-09-19T14:06:02;0.00;0.00;0.00
71794;PMS7003;59641;45.188;5.712;2023-09-19T14:08:28;0.00;0.00;0.00
71794;PMS7003;59641;45.188;5.712;2023-09-19T14:10:53;2.00;0.75;0.00
71794;PMS7003;59641;45.188;5.712;2023-09-19T14:13:19;0.00;0.00;0.00
71794;PMS7003;59641;45.188;5.712;2023-09-19T14:15:45;0.20;0.00;0.00
71794;PMS7003;59641;45.188;5.712;2023-09-19T14:18:11;0.00;0.00;0.00
71794;PMS7003;59641;45.188;5.712;2023-09-19T14:20:37;0.00;0.00;0.00
71794;PMS7003;59641;45.188;5.712;2023-09-19T14:23:05;0.00;0.00;0.00
71794;PMS7003;59641;45.188;5.712;2023-09-19T14:25:31;0.00;0.00;0.00
71794;PMS7003;59641;45.188;5.712;2023-09-19T14:27:59;1.00;1.00;0.00
71794;PMS7003;59641;45.188;5.712;2023-09-19T14:30:25;1.75;1.00;0.00
71794;PMS7003;59641;45.188;5.712;2023-09-19T14:32:50;0.00;0.00;0.00
71794;PMS7003;59641;45.188;5.712;2023-09-19T14:35:16;1.00;0.50;0.00
71794;PMS7003;59641;45.188;5.712;2023-09-19T14:37:41;0.50;0.50;0.00
71794;PMS7003;59641;45.188;5.712;2023-09-19T14:40:07;1.00;1.00;0.50
71794;PMS7003;59641;45.188;5.712;2023-09-19T14:42:38;1.00;1.00;0.20
71794;PMS7003;59641;45.188;5.712;2023-09-19T14:45:04;0.40;0.40;0.00
71794;PMS7003;59641;45.188;5.712;2023-09-19T14:47:31;0.20;0.20;0.20
71794;PMS7003;59641;45.188;5.712;2023-09-19T14:49:58;0.40;0.40;0.00
71794;PMS7003;59641;45.188;5.712;2023-09-19T14:52:25;1.00;1.00;0.00
71794;PMS7003;59641;45.188;5.712;2023-09-19T14:54:53;1.20;1.00;0.40
71794;PMS7003;59641;45.188;5.712;2023-09-19T14:57:18;0.75;0.75;0.00
71794;PMS7003;59641;45.188;5.712;2023-09-19T14:59:44;1.00;1.00;0.00
71794;PMS7003;59641;45.188;5.712;2023-09-19T15:02:09;0.75;0.75;0.00
71794;PMS7003;59641;45.188;5.712;2023-09-19T15:04:34;0.50;0.00;0.00
71794;PMS7003;59641;45.188;5.712;2023-09-19T15:07:00;0.75;0.75;0.25
71794;PMS7003;59641;45.188;5.712;2023-09-19T15:09:25;1.00;1.00;0.50
71794;PMS7003;59641;45.188;5.712;2023-09-19T15:11:54;0.25;0.25;0.00
71794;PMS7003;59641;45.188;5.712;2023-09-19T15:14:20;0.60;0.00;0.00
71794;PMS7003;59641;45.188;5.712;2023-09-19T15:16:47;0.00;0.00;0.00
71794;PMS7003;59641;45.188;5.712;2023-09-19T15:19:13;1.00;1.00;0.00
71794;PMS7003;59641;45.188;5.712;2023-09-19T15:21:38;0.25;0.25;0.25
71794;PMS7003;59641;45.188;5.712;2023-09-19T15:24:05;0.00;0.00;0.00
71794;PMS7003;59641;45.188;5.712;2023-09-19T15:26:34;1.00;1.00;0.60
71794;PMS7003;59641;45.188;5.712;2023-09-19T15:29:00;1.20;1.20;1.00
71794;PMS7003;59641;45.188;5.712;2023-09-19T15:31:25;1.00;1.00;1.00